Flight ASX217

  • Submitted By: Krzysztof H. Blaszkow
  • Departure Airport: Katowice Pyrzowice (EPKT)
  • Arrival Airport: Chisinau Airport (LUKK)
  • Aircraft: ATR 72-500 (SP-RYD)
  • Flight Time: 02.25.59
  • Date Submitted: 11/27/2016
  • Status: Accepted
Flight Details
Gross Revenue:
(68 load / € 150.00 per unit
€ 10,200.00
Fuel Cost:
(1424.28 fuel used @ 0.45 / unit)
€ 640.93

Additional Log Information:

View Log

[22:22] - Flight 1 ATR 72-500 House Livery
[22:22] - Flight ASX217 is ready to depart EPKT with a final destination of LUKK.
[22:22] - Parking Brake Applied
[22:22] - Boarding
[22:23] - ADF1 - 305.0
[22:23] - ADF2 - 371.0
[22:23] - NAV1 - 114.30
[22:23] - NAV2 - 114.05
[22:23] - COM1 - 125.50
[22:23] - COM2 - 125.27
[22:23] - Transponder - 1200
[22:24] - Beacon Light ON 6AGL
[22:37] - Transponder - 2200
[22:40] - Taxi Lights ON 6AGL
[22:40] - Navigation Lights ON 6AGL
[22:40] - Logo Lights ON 6AGL
[22:40] - Parking Brake Released
[22:40] - Pushing Back from the gate
[22:41] - Engine 1 Started
[22:42] - Engine 2 Started
[22:44] - Taxiing to Runway
[22:47] - Landing Lights ON 6AGL
[22:47] - Taxi Lights OFF 6AGL
[22:47] - Strobe Lights ON 6AGL
[22:50] - Flaps to position 1
[22:50] - Taking Off with 68 passengers on board
[22:50] - Take off at 126kts, with a pitch of 4deg and 5521lbs of fuel on board
[22:50] - Wind Heading 249 | Wind Speed 9kts | Temperature 4 deg C
[22:50] - METAR Departure: EPKT 262230Z 24008KT 1500 -DZ BR FEW003 BKN011 OVC014 05/05 Q1011

[22:50] - Flaps to position 0 at 1112ft and 135kts
[22:50] - Gear up at 210AGL
[22:51] - Climbing to TOC
[22:57] - AutoPilot Engaged at 9885AGL
[23:24] - TOC reached
[23:24] - Cruise started
[00:02] - COM1 - 135.30
[00:03] - Transponder - 0204
[00:08] - NAV2 - 109.90
[00:08] - NAV1 - 109.90
[00:08] - NAV1 - 113.70
[00:14] - TOD reached
[00:14] - Descending to destination
[00:17] - COM1 - 122.80
[00:24] - Landing Lights OFF 10662AGL
[00:24] - Landing Lights ON 10624AGL
[00:27] - Landing Shortly
[00:27] - NAV1 - 109.90
[00:33] - Flaps to position 1 at 2454ft and 196kts
[00:33] - Gear down at 2093AGL
[00:37] - AutoPilot Disengaged at 722AGL
[00:38] - Landed at -191fpm. With 2523lbs of fuel onboard and a pitch angle of 2deg.
[00:38] - Wind Heading 219 | Wind Speed 6kts | Temperature 3 deg C
[00:38] - METAR Arrival: LUKK 270000Z 23008KT 200V260 3500 BR OVC004 03/02 Q1014 R08/CLRD// TEMPO 1600 BR BKN002

[00:39] - Taxiing to Gate
[00:40] - Flaps to position 0
[00:41] - Landing Lights OFF 3AGL
[00:41] - Taxi Lights ON 3AGL
[00:43] - Strobe Lights OFF 3AGL
[00:48] - Parking Brake Applied
[00:48] - Arrived safely at LUKK. We hope you enjoyed your flight!
[00:48] - Engine 1 Stopped
[00:48] - Engine 2 Stopped
[00:48] - Taxi Lights OFF 3AGL
[00:48] - Navigation Lights OFF 3AGL
[00:49] - Flight 1 ATR 72-500 House Livery
[00:49] - MaxSim Rate: 1x
[00:49] - SiouxAcars ver: 1.0.1.2

Route Map